sensor_id;sensor_type;location;lat;lon;timestamp;P1;durP1;ratioP1;P2;durP2;ratioP2
12210;SDS011;6168;42.658;23.298;2022-07-23T04:01:02;6.25;;;4.38;;
12210;SDS011;6168;42.658;23.298;2022-07-23T04:03:29;9.40;;;5.00;;
12210;SDS011;6168;42.658;23.298;2022-07-23T04:05:56;13.95;;;5.07;;
12210;SDS011;6168;42.658;23.298;2022-07-23T04:08:23;9.38;;;4.95;;
12210;SDS011;6168;42.658;23.298;2022-07-23T04:10:50;12.70;;;5.10;;
12210;SDS011;6168;42.658;23.298;2022-07-23T04:13:17;6.93;;;4.28;;
12210;SDS011;6168;42.658;23.298;2022-07-23T04:15:44;4.70;;;3.83;;
12210;SDS011;6168;42.658;23.298;2022-07-23T04:18:12;6.78;;;5.05;;
12210;SDS011;6168;42.658;23.298;2022-07-23T04:20:42;9.85;;;4.63;;
12210;SDS011;6168;42.658;23.298;2022-07-23T04:23:09;7.85;;;5.03;;
12210;SDS011;6168;42.658;23.298;2022-07-23T04:25:36;8.00;;;4.57;;
12210;SDS011;6168;42.658;23.298;2022-07-23T04:28:03;6.32;;;5.80;;
12210;SDS011;6168;42.658;23.298;2022-07-23T04:30:30;8.25;;;5.45;;
12210;SDS011;6168;42.658;23.298;2022-07-23T04:32:57;6.80;;;5.75;;
12210;SDS011;6168;42.658;23.298;2022-07-23T04:35:25;6.57;;;5.95;;
12210;SDS011;6168;42.658;23.298;2022-07-23T04:37:52;8.65;;;5.75;;
12210;SDS011;6168;42.658;23.298;2022-07-23T04:40:19;4.80;;;4.35;;
12210;SDS011;6168;42.658;23.298;2022-07-23T04:42:46;7.60;;;6.07;;
12210;SDS011;6168;42.658;23.298;2022-07-23T04:45:13;8.73;;;6.97;;
12210;SDS011;6168;42.658;23.298;2022-07-23T04:47:40;9.80;;;5.70;;
12210;SDS011;6168;42.658;23.298;2022-07-23T04:50:07;7.70;;;4.55;;
12210;SDS011;6168;42.658;23.298;2022-07-23T04:52:35;6.80;;;5.40;;
12210;SDS011;6168;42.658;23.298;2022-07-23T04:55:02;7.68;;;6.82;;
12210;SDS011;6168;42.658;23.298;2022-07-23T04:57:30;8.73;;;6.80;;
12210;SDS011;6168;42.658;23.298;2022-07-23T04:59:57;8.77;;;7.00;;
12210;SDS011;6168;42.658;23.298;2022-07-23T05:02:24;11.57;;;6.45;;
12210;SDS011;6168;42.658;23.298;2022-07-23T05:04:51;6.78;;;6.22;;
12210;SDS011;6168;42.658;23.298;2022-07-23T05:07:17;7.53;;;6.03;;
12210;SDS011;6168;42.658;23.298;2022-07-23T05:09:46;7.50;;;6.53;;
12210;SDS011;6168;42.658;23.298;2022-07-23T05:12:13;8.48;;;6.88;;
12210;SDS011;6168;42.658;23.298;2022-07-23T05:14:39;7.25;;;6.65;;
12210;SDS011;6168;42.658;23.298;2022-07-23T05:17:07;8.20;;;6.38;;
12210;SDS011;6168;42.658;23.298;2022-07-23T05:19:34;11.85;;;6.28;;
12210;SDS011;6168;42.658;23.298;2022-07-23T05:22:01;7.07;;;6.05;;
12210;SDS011;6168;42.658;23.298;2022-07-23T05:24:28;6.50;;;5.88;;
12210;SDS011;6168;42.658;23.298;2022-07-23T05:26:56;7.28;;;5.97;;
12210;SDS011;6168;42.658;23.298;2022-07-23T05:29:23;11.68;;;6.70;;
12210;SDS011;6168;42.658;23.298;2022-07-23T05:31:49;8.23;;;6.03;;
12210;SDS011;6168;42.658;23.298;2022-07-23T05:34:16;9.77;;;5.82;;
12210;SDS011;6168;42.658;23.298;2022-07-23T05:36:43;9.63;;;6.00;;
12210;SDS011;6168;42.658;23.298;2022-07-23T05:39:10;12.50;;;5.78;;
12210;SDS011;6168;42.658;23.298;2022-07-23T05:41:37;6.75;;;5.68;;
12210;SDS011;6168;42.658;23.298;2022-07-23T05:44:05;6.18;;;5.50;;
12210;SDS011;6168;42.658;23.298;2022-07-23T05:46:32;12.05;;;5.55;;
12210;SDS011;6168;42.658;23.298;2022-07-23T05:48:59;9.48;;;6.18;;
12210;SDS011;6168;42.658;23.298;2022-07-23T05:51:26;9.80;;;5.10;;
12210;SDS011;6168;42.658;23.298;2022-07-23T05:53:53;6.78;;;6.07;;
12210;SDS011;6168;42.658;23.298;2022-07-23T05:56:19;10.88;;;5.38;;
12210;SDS011;6168;42.658;23.298;2022-07-23T05:58:46;8.43;;;5.28;;
12210;SDS011;6168;42.658;23.298;2022-07-23T06:01:14;8.75;;;5.47;;
12210;SDS011;6168;42.658;23.298;2022-07-23T06:03:41;5.97;;;5.22;;
12210;SDS011;6168;42.658;23.298;2022-07-23T06:06:08;6.90;;;5.18;;
12210;SDS011;6168;42.658;23.298;2022-07-23T06:08:35;8.30;;;5.68;;
12210;SDS011;6168;42.658;23.298;2022-07-23T06:11:02;10.77;;;5.07;;
12210;SDS011;6168;42.658;23.298;2022-07-23T06:13:29;7.32;;;4.00;;
12210;SDS011;6168;42.658;23.298;2022-07-23T06:15:56;19.33;;;5.15;;
12210;SDS011;6168;42.658;23.298;2022-07-23T06:18:24;5.43;;;4.53;;
12210;SDS011;6168;42.658;23.298;2022-07-23T06:20:51;8.48;;;4.05;;
12210;SDS011;6168;42.658;23.298;2022-07-23T06:23:18;4.38;;;3.85;;
12210;SDS011;6168;42.658;23.298;2022-07-23T06:25:45;7.68;;;4.72;;
12210;SDS011;6168;42.658;23.298;2022-07-23T06:28:11;4.95;;;4.45;;
12210;SDS011;6168;42.658;23.298;2022-07-23T06:30:38;7.15;;;4.00;;
12210;SDS011;6168;42.658;23.298;2022-07-23T06:33:05;6.13;;;3.65;;
12210;SDS011;6168;42.658;23.298;2022-07-23T06:35:33;6.32;;;3.88;;
12210;SDS011;6168;42.658;23.298;2022-07-23T06:38:00;4.43;;;4.03;;
12210;SDS011;6168;42.658;23.298;2022-07-23T06:40:27;7.50;;;3.88;;
12210;SDS011;6168;42.658;23.298;2022-07-23T06:42:54;5.60;;;3.83;;
12210;SDS011;6168;42.658;23.298;2022-07-23T06:45:21;11.25;;;3.97;;
12210;SDS011;6168;42.658;23.298;2022-07-23T06:47:48;5.50;;;3.80;;
12210;SDS011;6168;42.658;23.298;2022-07-23T06:50:15;7.93;;;4.10;;
12210;SDS011;6168;42.658;23.298;2022-07-23T06:52:43;5.25;;;4.00;;
12210;SDS011;6168;42.658;23.298;2022-07-23T06:55:10;6.78;;;3.95;;
12210;SDS011;6168;42.658;23.298;2022-07-23T06:57:37;4.25;;;3.67;;
12210;SDS011;6168;42.658;23.298;2022-07-23T07:00:04;5.38;;;4.22;;
12210;SDS011;6168;42.658;23.298;2022-07-23T07:02:32;9.00;;;5.15;;
12210;SDS011;6168;42.658;23.298;2022-07-23T07:04:59;9.88;;;4.45;;
12210;SDS011;6168;42.658;23.298;2022-07-23T07:07:26;5.85;;;4.85;;
12210;SDS011;6168;42.658;23.298;2022-07-23T07:09:54;6.15;;;4.30;;
12210;SDS011;6168;42.658;23.298;2022-07-23T07:12:21;5.35;;;4.13;;
12210;SDS011;6168;42.658;23.298;2022-07-23T07:14:48;6.25;;;4.15;;
12210;SDS011;6168;42.658;23.298;2022-07-23T07:17:15;6.13;;;4.50;;
12210;SDS011;6168;42.658;23.298;2022-07-23T07:19:42;13.98;;;4.75;;
12210;SDS011;6168;42.658;23.298;2022-07-23T07:22:08;8.50;;;4.30;;
12210;SDS011;6168;42.658;23.298;2022-07-23T07:24:35;5.88;;;3.80;;
12210;SDS011;6168;42.658;23.298;2022-07-23T07:27:03;4.53;;;4.05;;
12210;SDS011;6168;42.658;23.298;2022-07-23T07:29:31;6.95;;;4.72;;
12210;SDS011;6168;42.658;23.298;2022-07-23T07:31:58;6.20;;;3.97;;
12210;SDS011;6168;42.658;23.298;2022-07-23T07:34:25;7.38;;;4.35;;
12210;SDS011;6168;42.658;23.298;2022-07-23T07:36:52;5.03;;;3.97;;
12210;SDS011;6168;42.658;23.298;2022-07-23T07:39:19;6.22;;;3.95;;
12210;SDS011;6168;42.658;23.298;2022-07-23T07:41:46;5.93;;;3.92;;
12210;SDS011;6168;42.658;23.298;2022-07-23T07:44:14;6.78;;;4.40;;
12210;SDS011;6168;42.658;23.298;2022-07-23T07:46:41;5.65;;;3.95;;
12210;SDS011;6168;42.658;23.298;2022-07-23T07:49:08;5.60;;;3.85;;
12210;SDS011;6168;42.658;23.298;2022-07-23T07:51:35;6.60;;;4.50;;
12210;SDS011;6168;42.658;23.298;2022-07-23T07:54:02;11.10;;;4.85;;
12210;SDS011;6168;42.658;23.298;2022-07-23T07:56:29;8.00;;;4.10;;
12210;SDS011;6168;42.658;23.298;2022-07-23T07:58:56;4.95;;;4.45;;
12210;SDS011;6168;42.658;23.298;2022-07-23T08:01:24;6.07;;;4.15;;
12210;SDS011;6168;42.658;23.298;2022-07-23T08:03:51;8.05;;;4.25;;
12210;SDS011;6168;42.658;23.298;2022-07-23T08:06:18;5.10;;;4.60;;
12210;SDS011;6168;42.658;23.298;2022-07-23T08:08:45;5.03;;;4.55;;
12210;SDS011;6168;42.658;23.298;2022-07-23T08:11:12;6.00;;;4.53;;
12210;SDS011;6168;42.658;23.298;2022-07-23T08:13:39;5.47;;;4.65;;
12210;SDS011;6168;42.658;23.298;2022-07-23T08:16:06;5.30;;;4.82;;
12210;SDS011;6168;42.658;23.298;2022-07-23T08:18:34;10.00;;;4.93;;
12210;SDS011;6168;42.658;23.298;2022-07-23T08:21:01;9.77;;;4.68;;
12210;SDS011;6168;42.658;23.298;2022-07-23T08:23:30;5.68;;;4.43;;
12210;SDS011;6168;42.658;23.298;2022-07-23T08:25:57;16.60;;;5.35;;
12210;SDS011;6168;42.658;23.298;2022-07-23T08:28:25;8.25;;;4.65;;
12210;SDS011;6168;42.658;23.298;2022-07-23T08:30:52;7.35;;;4.95;;
12210;SDS011;6168;42.658;23.298;2022-07-23T08:33:19;8.02;;;4.97;;
12210;SDS011;6168;42.658;23.298;2022-07-23T08:35:47;7.47;;;4.95;;
12210;SDS011;6168;42.658;23.298;2022-07-23T08:38:18;6.20;;;4.88;;
12210;SDS011;6168;42.658;23.298;2022-07-23T08:40:46;7.80;;;4.25;;
12210;SDS011;6168;42.658;23.298;2022-07-23T08:43:15;10.38;;;5.30;;
12210;SDS011;6168;42.658;23.298;2022-07-23T08:45:43;5.93;;;4.55;;
12210;SDS011;6168;42.658;23.298;2022-07-23T08:48:12;7.05;;;4.68;;
12210;SDS011;6168;42.658;23.298;2022-07-23T08:50:42;8.55;;;4.50;;
12210;SDS011;6168;42.658;23.298;2022-07-23T08:53:11;7.22;;;4.70;;
12210;SDS011;6168;42.658;23.298;2022-07-23T08:55:38;6.32;;;4.68;;
12210;SDS011;6168;42.658;23.298;2022-07-23T08:58:05;5.35;;;4.82;;
12210;SDS011;6168;42.658;23.298;2022-07-23T09:00:32;11.77;;;4.90;;
12210;SDS011;6168;42.658;23.298;2022-07-23T09:02:59;6.20;;;3.83;;
12210;SDS011;6168;42.658;23.298;2022-07-23T09:05:26;7.38;;;4.70;;
12210;SDS011;6168;42.658;23.298;2022-07-23T09:08:09;8.23;;;4.25;;
12210;SDS011;6168;42.658;23.298;2022-07-23T09:10:52;4.93;;;4.15;;
12210;SDS011;6168;42.658;23.298;2022-07-23T09:13:24;5.15;;;4.63;;
12210;SDS011;6168;42.658;23.298;2022-07-23T09:15:53;8.75;;;4.32;;
12210;SDS011;6168;42.658;23.298;2022-07-23T09:18:27;5.13;;;4.53;;
12210;SDS011;6168;42.658;23.298;2022-07-23T09:21:05;4.93;;;4.50;;
12210;SDS011;6168;42.658;23.298;2022-07-23T09:23:38;10.52;;;4.38;;
12210;SDS011;6168;42.658;23.298;2022-07-23T09:28:56;7.65;;;4.18;;
12210;SDS011;6168;42.658;23.298;2022-07-23T09:31:25;6.85;;;4.45;;
12210;SDS011;6168;42.658;23.298;2022-07-23T09:34:06;6.65;;;3.80;;
12210;SDS011;6168;42.658;23.298;2022-07-23T09:36:33;7.50;;;3.83;;
12210;SDS011;6168;42.658;23.298;2022-07-23T09:39:02;5.35;;;3.70;;
12210;SDS011;6168;42.658;23.298;2022-07-23T09:41:38;6.28;;;3.97;;
12210;SDS011;6168;42.658;23.298;2022-07-23T09:44:10;7.82;;;4.60;;
12210;SDS011;6168;42.658;23.298;2022-07-23T09:46:38;6.90;;;3.95;;
12210;SDS011;6168;42.658;23.298;2022-07-23T09:49:10;7.68;;;2.70;;
12210;SDS011;6168;42.658;23.298;2022-07-23T09:51:45;5.00;;;3.28;;
12210;SDS011;6168;42.658;23.298;2022-07-23T09:54:23;4.53;;;3.03;;
12210;SDS011;6168;42.658;23.298;2022-07-23T09:56:53;5.97;;;2.15;;
12210;SDS011;6168;42.658;23.298;2022-07-23T09:59:22;4.53;;;2.42;;
12210;SDS011;6168;42.658;23.298;2022-07-23T10:01:52;5.50;;;2.47;;
12210;SDS011;6168;42.658;23.298;2022-07-23T10:04:20;3.72;;;2.10;;
12210;SDS011;6168;42.658;23.298;2022-07-23T10:06:49;5.70;;;2.30;;
12210;SDS011;6168;42.658;23.298;2022-07-23T10:09:18;4.22;;;2.33;;
12210;SDS011;6168;42.658;23.298;2022-07-23T10:11:52;4.13;;;2.53;;
12210;SDS011;6168;42.658;23.298;2022-07-23T10:14:23;2.53;;;2.28;;
12210;SDS011;6168;42.658;23.298;2022-07-23T10:16:51;5.53;;;2.90;;
12210;SDS011;6168;42.658;23.298;2022-07-23T10:19:18;6.68;;;2.58;;
12210;SDS011;6168;42.658;23.298;2022-07-23T10:21:46;4.18;;;3.80;;
12210;SDS011;6168;42.658;23.298;2022-07-23T10:24:21;7.10;;;3.28;;
12210;SDS011;6168;42.658;23.298;2022-07-23T10:27:00;7.05;;;3.72;;
12210;SDS011;6168;42.658;23.298;2022-07-23T10:29:45;7.68;;;3.42;;
12210;SDS011;6168;42.658;23.298;2022-07-23T10:32:23;3.50;;;3.00;;
12210;SDS011;6168;42.658;23.298;2022-07-23T10:34:58;7.05;;;3.17;;
12210;SDS011;6168;42.658;23.298;2022-07-23T10:37:37;4.63;;;3.00;;
12210;SDS011;6168;42.658;23.298;2022-07-23T10:40:13;5.72;;;2.90;;
12210;SDS011;6168;42.658;23.298;2022-07-23T10:42:42;4.55;;;3.10;;
12210;SDS011;6168;42.658;23.298;2022-07-23T10:45:26;7.93;;;3.20;;
12210;SDS011;6168;42.658;23.298;2022-07-23T10:47:55;6.00;;;3.33;;
12210;SDS011;6168;42.658;23.298;2022-07-23T10:50:40;6.72;;;3.03;;
12210;SDS011;6168;42.658;23.298;2022-07-23T10:53:11;5.15;;;2.90;;
12210;SDS011;6168;42.658;23.298;2022-07-23T10:55:48;6.55;;;2.65;;
12210;SDS011;6168;42.658;23.298;2022-07-23T10:58:20;6.20;;;2.53;;
12210;SDS011;6168;42.658;23.298;2022-07-23T11:00:49;10.27;;;2.55;;
12210;SDS011;6168;42.658;23.298;2022-07-23T11:03:33;4.07;;;2.05;;
12210;SDS011;6168;42.658;23.298;2022-07-23T11:06:03;5.93;;;2.75;;
12210;SDS011;6168;42.658;23.298;2022-07-23T11:08:31;6.65;;;3.20;;
12210;SDS011;6168;42.658;23.298;2022-07-23T11:11:09;6.78;;;2.47;;
12210;SDS011;6168;42.658;23.298;2022-07-23T11:13:38;7.82;;;2.97;;
12210;SDS011;6168;42.658;23.298;2022-07-23T11:16:16;3.72;;;2.50;;
12210;SDS011;6168;42.658;23.298;2022-07-23T11:18:54;6.68;;;2.17;;
12210;SDS011;6168;42.658;23.298;2022-07-23T11:21:44;4.50;;;2.15;;
12210;SDS011;6168;42.658;23.298;2022-07-23T11:24:13;7.88;;;2.10;;
12210;SDS011;6168;42.658;23.298;2022-07-23T11:26:44;7.35;;;2.25;;
12210;SDS011;6168;42.658;23.298;2022-07-23T11:32:17;5.45;;;2.40;;
12210;SDS011;6168;42.658;23.298;2022-07-23T11:35:00;6.93;;;2.03;;
12210;SDS011;6168;42.658;23.298;2022-07-23T11:37:29;7.50;;;2.40;;
12210;SDS011;6168;42.658;23.298;2022-07-23T11:40:02;13.05;;;2.20;;
12210;SDS011;6168;42.658;23.298;2022-07-23T11:42:34;9.60;;;2.90;;
12210;SDS011;6168;42.658;23.298;2022-07-23T11:45:03;7.40;;;2.45;;
12210;SDS011;6168;42.658;23.298;2022-07-23T11:47:31;9.25;;;2.25;;
12210;SDS011;6168;42.658;23.298;2022-07-23T11:49:59;8.57;;;2.72;;
12210;SDS011;6168;42.658;23.298;2022-07-23T11:52:28;7.55;;;2.40;;
12210;SDS011;6168;42.658;23.298;2022-07-23T11:54:56;15.10;;;2.65;;
12210;SDS011;6168;42.658;23.298;2022-07-23T11:57:25;5.38;;;2.15;;
12210;SDS011;6168;42.658;23.298;2022-07-23T11:59:55;8.70;;;2.45;;
12210;SDS011;6168;42.658;23.298;2022-07-23T12:02:22;5.00;;;2.38;;
12210;SDS011;6168;42.658;23.298;2022-07-23T12:04:50;7.97;;;3.00;;
12210;SDS011;6168;42.658;23.298;2022-07-23T12:07:23;6.32;;;2.92;;
12210;SDS011;6168;42.658;23.298;2022-07-23T12:09:55;8.73;;;2.25;;
12210;SDS011;6168;42.658;23.298;2022-07-23T12:12:23;15.23;;;2.90;;
12210;SDS011;6168;42.658;23.298;2022-07-23T12:14:52;7.68;;;1.73;;
12210;SDS011;6168;42.658;23.298;2022-07-23T12:17:26;8.70;;;2.28;;
12210;SDS011;6168;42.658;23.298;2022-07-23T12:19:54;8.45;;;2.00;;
12210;SDS011;6168;42.658;23.298;2022-07-23T12:22:23;9.30;;;1.83;;
12210;SDS011;6168;42.658;23.298;2022-07-23T12:24:57;9.07;;;2.10;;
12210;SDS011;6168;42.658;23.298;2022-07-23T12:27:25;7.40;;;1.98;;
12210;SDS011;6168;42.658;23.298;2022-07-23T12:29:54;11.07;;;2.28;;
12210;SDS011;6168;42.658;23.298;2022-07-23T12:32:23;9.98;;;2.63;;
12210;SDS011;6168;42.658;23.298;2022-07-23T12:35:01;12.82;;;2.28;;
12210;SDS011;6168;42.658;23.298;2022-07-23T12:37:31;10.10;;;2.10;;
12210;SDS011;6168;42.658;23.298;2022-07-23T12:42:52;7.22;;;2.05;;
12210;SDS011;6168;42.658;23.298;2022-07-23T12:45:22;7.30;;;1.67;;
12210;SDS011;6168;42.658;23.298;2022-07-23T12:47:57;8.48;;;2.13;;
12210;SDS011;6168;42.658;23.298;2022-07-23T12:50:38;13.98;;;2.78;;
12210;SDS011;6168;42.658;23.298;2022-07-23T12:53:16;6.75;;;2.60;;
12210;SDS011;6168;42.658;23.298;2022-07-23T12:55:45;8.43;;;2.50;;
12210;SDS011;6168;42.658;23.298;2022-07-23T12:58:14;10.15;;;2.40;;
12210;SDS011;6168;42.658;23.298;2022-07-23T13:03:32;9.38;;;1.60;;
12210;SDS011;6168;42.658;23.298;2022-07-23T13:06:02;5.30;;;1.88;;
12210;SDS011;6168;42.658;23.298;2022-07-23T13:08:31;12.38;;;2.85;;
12210;SDS011;6168;42.658;23.298;2022-07-23T13:10:59;11.48;;;2.35;;
12210;SDS011;6168;42.658;23.298;2022-07-23T13:13:27;9.68;;;1.90;;
12210;SDS011;6168;42.658;23.298;2022-07-23T13:15:55;6.88;;;2.45;;
12210;SDS011;6168;42.658;23.298;2022-07-23T13:18:24;10.75;;;1.98;;
12210;SDS011;6168;42.658;23.298;2022-07-23T13:20:52;7.93;;;2.40;;
12210;SDS011;6168;42.658;23.298;2022-07-23T13:23:20;10.35;;;2.53;;
12210;SDS011;6168;42.658;23.298;2022-07-23T13:25:47;7.65;;;2.03;;
12210;SDS011;6168;42.658;23.298;2022-07-23T13:28:15;6.50;;;2.03;;
12210;SDS011;6168;42.658;23.298;2022-07-23T13:30:42;10.02;;;2.38;;
12210;SDS011;6168;42.658;23.298;2022-07-23T13:33:11;10.85;;;2.88;;
12210;SDS011;6168;42.658;23.298;2022-07-23T13:35:39;4.90;;;1.77;;
12210;SDS011;6168;42.658;23.298;2022-07-23T13:38:06;3.78;;;1.83;;
12210;SDS011;6168;42.658;23.298;2022-07-23T13:40:34;7.40;;;2.47;;
12210;SDS011;6168;42.658;23.298;2022-07-23T13:43:03;10.70;;;2.22;;
12210;SDS011;6168;42.658;23.298;2022-07-23T13:45:30;4.95;;;1.83;;
12210;SDS011;6168;42.658;23.298;2022-07-23T13:47:57;11.82;;;2.50;;
12210;SDS011;6168;42.658;23.298;2022-07-23T13:50:24;7.03;;;1.67;;
12210;SDS011;6168;42.658;23.298;2022-07-23T13:52:52;8.20;;;1.77;;
12210;SDS011;6168;42.658;23.298;2022-07-23T13:55:19;6.13;;;2.22;;
12210;SDS011;6168;42.658;23.298;2022-07-23T13:57:46;6.43;;;1.83;;
12210;SDS011;6168;42.658;23.298;2022-07-23T14:00:13;6.13;;;1.95;;
12210;SDS011;6168;42.658;23.298;2022-07-23T14:02:40;9.05;;;2.42;;
12210;SDS011;6168;42.658;23.298;2022-07-23T14:05:08;7.95;;;1.85;;
12210;SDS011;6168;42.658;23.298;2022-07-23T14:07:37;4.45;;;1.95;;
12210;SDS011;6168;42.658;23.298;2022-07-23T14:10:06;4.20;;;1.58;;
12210;SDS011;6168;42.658;23.298;2022-07-23T14:12:34;6.70;;;1.92;;
12210;SDS011;6168;42.658;23.298;2022-07-23T14:15:01;11.55;;;2.85;;
12210;SDS011;6168;42.658;23.298;2022-07-23T14:17:29;7.07;;;2.08;;
12210;SDS011;6168;42.658;23.298;2022-07-23T14:19:57;2.90;;;1.67;;
12210;SDS011;6168;42.658;23.298;2022-07-23T14:22:24;9.82;;;2.22;;
12210;SDS011;6168;42.658;23.298;2022-07-23T14:24:50;7.53;;;2.83;;
12210;SDS011;6168;42.658;23.298;2022-07-23T14:27:19;3.17;;;1.67;;
12210;SDS011;6168;42.658;23.298;2022-07-23T14:29:46;4.55;;;1.67;;
12210;SDS011;6168;42.658;23.298;2022-07-23T14:32:13;7.68;;;2.00;;
12210;SDS011;6168;42.658;23.298;2022-07-23T14:34:40;8.55;;;2.45;;
12210;SDS011;6168;42.658;23.298;2022-07-23T14:37:06;5.72;;;1.70;;
12210;SDS011;6168;42.658;23.298;2022-07-23T14:39:33;6.70;;;2.42;;
12210;SDS011;6168;42.658;23.298;2022-07-23T14:42:00;4.88;;;2.05;;
12210;SDS011;6168;42.658;23.298;2022-07-23T14:44:29;7.15;;;2.53;;
12210;SDS011;6168;42.658;23.298;2022-07-23T14:46:55;5.70;;;2.72;;
12210;SDS011;6168;42.658;23.298;2022-07-23T14:49:22;4.38;;;1.95;;
12210;SDS011;6168;42.658;23.298;2022-07-23T14:51:49;7.53;;;2.20;;
12210;SDS011;6168;42.658;23.298;2022-07-23T14:54:16;6.63;;;2.33;;
12210;SDS011;6168;42.658;23.298;2022-07-23T14:56:44;8.00;;;2.20;;
12210;SDS011;6168;42.658;23.298;2022-07-23T14:59:11;11.02;;;2.08;;
12210;SDS011;6168;42.658;23.298;2022-07-23T15:01:40;5.95;;;1.88;;
12210;SDS011;6168;42.658;23.298;2022-07-23T15:04:07;8.63;;;2.03;;
12210;SDS011;6168;42.658;23.298;2022-07-23T15:06:33;3.20;;;1.70;;
12210;SDS011;6168;42.658;23.298;2022-07-23T15:09:00;10.13;;;2.03;;
12210;SDS011;6168;42.658;23.298;2022-07-23T15:11:27;8.15;;;2.40;;
12210;SDS011;6168;42.658;23.298;2022-07-23T15:13:57;6.53;;;1.73;;
12210;SDS011;6168;42.658;23.298;2022-07-23T15:16:24;9.05;;;2.22;;
12210;SDS011;6168;42.658;23.298;2022-07-23T15:18:52;5.85;;;1.98;;
12210;SDS011;6168;42.658;23.298;2022-07-23T15:21:19;3.92;;;1.88;;
12210;SDS011;6168;42.658;23.298;2022-07-23T15:23:46;6.75;;;1.70;;
12210;SDS011;6168;42.658;23.298;2022-07-23T15:27:30;4.32;;;2.60;;
12210;SDS011;6168;42.658;23.298;2022-07-23T15:29:57;10.13;;;2.15;;
12210;SDS011;6168;42.658;23.298;2022-07-23T15:32:23;5.22;;;2.00;;
12210;SDS011;6168;42.658;23.298;2022-07-23T15:34:51;5.97;;;2.53;;
12210;SDS011;6168;42.658;23.298;2022-07-23T15:37:18;6.55;;;2.38;;
12210;SDS011;6168;42.658;23.298;2022-07-23T15:39:45;7.22;;;2.78;;
12210;SDS011;6168;42.658;23.298;2022-07-23T15:42:12;6.78;;;3.08;;
12210;SDS011;6168;42.658;23.298;2022-07-23T15:44:41;6.03;;;2.90;;
12210;SDS011;6168;42.658;23.298;2022-07-23T15:47:07;6.80;;;2.90;;
12210;SDS011;6168;42.658;23.298;2022-07-23T15:49:39;3.58;;;3.13;;
12210;SDS011;6168;42.658;23.298;2022-07-23T15:52:05;5.90;;;2.97;;
12210;SDS011;6168;42.658;23.298;2022-07-23T15:57:20;10.25;;;3.05;;
12210;SDS011;6168;42.658;23.298;2022-07-23T15:59:48;5.95;;;3.13;;
12210;SDS011;6168;42.658;23.298;2022-07-23T16:02:15;10.32;;;2.92;;
12210;SDS011;6168;42.658;23.298;2022-07-23T16:04:42;5.75;;;2.88;;
12210;SDS011;6168;42.658;23.298;2022-07-23T16:07:09;6.85;;;3.03;;
12210;SDS011;6168;42.658;23.298;2022-07-23T16:09:36;7.40;;;2.65;;
12210;SDS011;6168;42.658;23.298;2022-07-23T16:12:03;7.43;;;2.97;;
12210;SDS011;6168;42.658;23.298;2022-07-23T16:14:30;9.68;;;3.47;;
12210;SDS011;6168;42.658;23.298;2022-07-23T16:16:59;6.95;;;2.95;;
12210;SDS011;6168;42.658;23.298;2022-07-23T16:19:26;7.10;;;2.85;;
12210;SDS011;6168;42.658;23.298;2022-07-23T16:21:52;10.13;;;3.60;;
12210;SDS011;6168;42.658;23.298;2022-07-23T16:24:19;6.47;;;2.92;;
12210;SDS011;6168;42.658;23.298;2022-07-23T16:26:46;7.35;;;3.35;;
12210;SDS011;6168;42.658;23.298;2022-07-23T16:29:13;8.25;;;3.30;;
12210;SDS011;6168;42.658;23.298;2022-07-23T16:31:41;6.15;;;2.78;;
12210;SDS011;6168;42.658;23.298;2022-07-23T16:34:09;6.78;;;2.83;;
12210;SDS011;6168;42.658;23.298;2022-07-23T16:36:36;5.57;;;2.97;;
12210;SDS011;6168;42.658;23.298;2022-07-23T16:39:03;6.80;;;3.05;;
12210;SDS011;6168;42.658;23.298;2022-07-23T16:41:30;7.82;;;2.97;;
12210;SDS011;6168;42.658;23.298;2022-07-23T16:43:57;4.20;;;2.70;;
12210;SDS011;6168;42.658;23.298;2022-07-23T16:46:24;8.35;;;3.17;;
12210;SDS011;6168;42.658;23.298;2022-07-23T16:48:51;9.52;;;3.53;;
12210;SDS011;6168;42.658;23.298;2022-07-23T16:51:19;6.97;;;3.47;;
12210;SDS011;6168;42.658;23.298;2022-07-23T16:53:46;5.75;;;3.63;;
12210;SDS011;6168;42.658;23.298;2022-07-23T16:56:13;10.32;;;3.65;;
12210;SDS011;6168;42.658;23.298;2022-07-23T16:58:40;11.27;;;4.28;;
12210;SDS011;6168;42.658;23.298;2022-07-23T17:01:07;9.73;;;3.80;;
12210;SDS011;6168;42.658;23.298;2022-07-23T17:03:34;9.82;;;3.28;;
12210;SDS011;6168;42.658;23.298;2022-07-23T17:06:01;10.60;;;3.47;;
12210;SDS011;6168;42.658;23.298;2022-07-23T17:08:29;8.60;;;3.20;;
12210;SDS011;6168;42.658;23.298;2022-07-23T17:10:56;10.95;;;3.75;;
12210;SDS011;6168;42.658;23.298;2022-07-23T17:13:23;6.65;;;3.25;;
12210;SDS011;6168;42.658;23.298;2022-07-23T17:15:51;8.70;;;3.25;;
12210;SDS011;6168;42.658;23.298;2022-07-23T17:18:17;12.75;;;4.85;;
12210;SDS011;6168;42.658;23.298;2022-07-23T17:20:44;9.13;;;3.90;;
12210;SDS011;6168;42.658;23.298;2022-07-23T17:23:12;9.25;;;3.85;;
12210;SDS011;6168;42.658;23.298;2022-07-23T17:25:40;9.40;;;3.42;;
12210;SDS011;6168;42.658;23.298;2022-07-23T17:28:07;12.15;;;4.07;;
12210;SDS011;6168;42.658;23.298;2022-07-23T17:30:34;5.75;;;3.40;;
12210;SDS011;6168;42.658;23.298;2022-07-23T17:33:01;10.13;;;3.60;;
12210;SDS011;6168;42.658;23.298;2022-07-23T17:35:28;9.13;;;4.05;;
12210;SDS011;6168;42.658;23.298;2022-07-23T17:37:55;7.80;;;3.92;;
12210;SDS011;6168;42.658;23.298;2022-07-23T17:40:22;10.63;;;4.55;;
12210;SDS011;6168;42.658;23.298;2022-07-23T17:42:50;8.93;;;3.70;;
12210;SDS011;6168;42.658;23.298;2022-07-23T17:45:17;6.93;;;3.97;;
12210;SDS011;6168;42.658;23.298;2022-07-23T17:47:44;7.07;;;4.28;;
12210;SDS011;6168;42.658;23.298;2022-07-23T17:50:12;15.15;;;4.35;;
12210;SDS011;6168;42.658;23.298;2022-07-23T17:52:43;10.32;;;4.45;;
12210;SDS011;6168;42.658;23.298;2022-07-23T17:55:12;11.90;;;4.80;;
12210;SDS011;6168;42.658;23.298;2022-07-23T17:57:38;15.70;;;7.03;;
12210;SDS011;6168;42.658;23.298;2022-07-23T18:00:07;11.82;;;6.15;;
12210;SDS011;6168;42.658;23.298;2022-07-23T18:02:37;9.05;;;5.20;;
12210;SDS011;6168;42.658;23.298;2022-07-23T18:05:04;16.30;;;7.63;;
12210;SDS011;6168;42.658;23.298;2022-07-23T18:07:31;13.88;;;7.03;;
12210;SDS011;6168;42.658;23.298;2022-07-23T18:09:58;12.75;;;6.03;;
12210;SDS011;6168;42.658;23.298;2022-07-23T18:12:25;17.73;;;6.72;;
12210;SDS011;6168;42.658;23.298;2022-07-23T18:14:52;21.40;;;7.75;;
12210;SDS011;6168;42.658;23.298;2022-07-23T18:17:21;13.35;;;7.78;;
12210;SDS011;6168;42.658;23.298;2022-07-23T18:19:48;14.30;;;7.57;;
12210;SDS011;6168;42.658;23.298;2022-07-23T18:22:15;16.15;;;8.23;;
12210;SDS011;6168;42.658;23.298;2022-07-23T18:24:42;17.02;;;8.75;;
12210;SDS011;6168;42.658;23.298;2022-07-23T18:27:08;19.27;;;8.68;;
12210;SDS011;6168;42.658;23.298;2022-07-23T18:29:35;15.07;;;6.80;;
12210;SDS011;6168;42.658;23.298;2022-07-23T18:32:02;8.23;;;6.97;;
12210;SDS011;6168;42.658;23.298;2022-07-23T18:34:31;9.73;;;5.97;;
12210;SDS011;6168;42.658;23.298;2022-07-23T18:36:58;17.05;;;6.63;;
12210;SDS011;6168;42.658;23.298;2022-07-23T18:39:25;12.93;;;5.90;;
12210;SDS011;6168;42.658;23.298;2022-07-23T18:41:53;15.20;;;6.78;;
12210;SDS011;6168;42.658;23.298;2022-07-23T18:44:20;10.52;;;5.68;;
12210;SDS011;6168;42.658;23.298;2022-07-23T18:46:46;10.35;;;4.47;;
12210;SDS011;6168;42.658;23.298;2022-07-23T18:49:13;10.63;;;5.18;;
12210;SDS011;6168;42.658;23.298;2022-07-23T18:51:42;8.35;;;4.75;;
12210;SDS011;6168;42.658;23.298;2022-07-23T18:54:09;15.50;;;7.53;;
12210;SDS011;6168;42.658;23.298;2022-07-23T18:56:37;10.18;;;4.70;;
12210;SDS011;6168;42.658;23.298;2022-07-23T18:59:04;9.45;;;4.15;;
12210;SDS011;6168;42.658;23.298;2022-07-23T19:01:31;7.78;;;3.92;;
12210;SDS011;6168;42.658;23.298;2022-07-23T19:03:58;9.55;;;4.63;;
12210;SDS011;6168;42.658;23.298;2022-07-23T19:06:25;13.52;;;5.63;;
12210;SDS011;6168;42.658;23.298;2022-07-23T19:08:54;11.82;;;5.78;;